sensor_id;sensor_type;location;lat;lon;timestamp;pressure;altitude;pressure_sealevel;temperature;humidity
26635;BME280;14490;54.208;37.686;2022-09-09T00:00:28;99851.63;;;6.35;100.00
26635;BME280;14490;54.208;37.686;2022-09-09T00:03:01;99857.34;;;6.29;100.00
26635;BME280;14490;54.208;37.686;2022-09-09T00:05:33;99863.22;;;6.20;100.00
26635;BME280;14490;54.208;37.686;2022-09-09T00:08:08;99859.78;;;6.18;100.00
26635;BME280;14490;54.208;37.686;2022-09-09T00:10:40;99856.19;;;6.19;100.00
26635;BME280;14490;54.208;37.686;2022-09-09T00:13:12;99865.31;;;6.15;100.00
26635;BME280;14490;54.208;37.686;2022-09-09T00:15:47;99874.78;;;6.05;100.00
26635;BME280;14490;54.208;37.686;2022-09-09T00:18:21;99872.91;;;6.07;100.00
26635;BME280;14490;54.208;37.686;2022-09-09T00:20:54;99863.53;;;6.00;100.00
26635;BME280;14490;54.208;37.686;2022-09-09T00:23:27;99869.97;;;5.96;100.00
26635;BME280;14490;54.208;37.686;2022-09-09T00:26:02;99876.88;;;6.00;100.00
26635;BME280;14490;54.208;37.686;2022-09-09T00:28:33;99878.50;;;6.02;100.00
26635;BME280;14490;54.208;37.686;2022-09-09T00:31:08;99881.97;;;6.04;100.00
26635;BME280;14490;54.208;37.686;2022-09-09T00:33:39;99883.59;;;6.07;100.00
26635;BME280;14490;54.208;37.686;2022-09-09T00:36:09;99877.41;;;6.07;100.00
26635;BME280;14490;54.208;37.686;2022-09-09T00:38:44;99891.00;;;6.02;100.00
26635;BME280;14490;54.208;37.686;2022-09-09T00:41:17;99883.09;;;6.00;100.00
26635;BME280;14490;54.208;37.686;2022-09-09T00:43:50;99890.50;;;5.95;100.00
26635;BME280;14490;54.208;37.686;2022-09-09T00:46:27;99885.50;;;5.89;100.00
26635;BME280;14490;54.208;37.686;2022-09-09T00:49:15;99890.16;;;5.86;100.00
26635;BME280;14490;54.208;37.686;2022-09-09T00:51:49;99894.78;;;5.82;100.00
26635;BME280;14490;54.208;37.686;2022-09-09T00:54:30;99894.19;;;5.77;100.00
26635;BME280;14490;54.208;37.686;2022-09-09T00:57:07;99897.84;;;5.75;100.00
26635;BME280;14490;54.208;37.686;2022-09-09T00:59:44;99901.50;;;5.74;100.00
26635;BME280;14490;54.208;37.686;2022-09-09T01:02:17;99898.19;;;5.69;100.00
26635;BME280;14490;54.208;37.686;2022-09-09T01:04:50;99900.22;;;5.65;100.00
26635;BME280;14490;54.208;37.686;2022-09-09T01:07:17;99900.28;;;5.64;100.00
26635;BME280;14490;54.208;37.686;2022-09-09T01:09:52;99905.63;;;5.64;100.00
26635;BME280;14490;54.208;37.686;2022-09-09T01:12:26;99908.44;;;5.61;100.00
26635;BME280;14490;54.208;37.686;2022-09-09T01:15:01;99912.91;;;5.60;100.00
26635;BME280;14490;54.208;37.686;2022-09-09T01:17:36;99914.72;;;5.60;100.00
26635;BME280;14490;54.208;37.686;2022-09-09T01:20:12;99918.53;;;5.56;100.00
26635;BME280;14490;54.208;37.686;2022-09-09T01:22:44;99910.59;;;5.54;100.00
26635;BME280;14490;54.208;37.686;2022-09-09T01:28:26;99904.66;;;5.49;100.00
26635;BME280;14490;54.208;37.686;2022-09-09T01:30:55;99915.22;;;5.50;100.00
26635;BME280;14490;54.208;37.686;2022-09-09T01:33:23;99910.59;;;5.54;100.00
26635;BME280;14490;54.208;37.686;2022-09-09T01:35:55;99909.88;;;5.50;100.00
26635;BME280;14490;54.208;37.686;2022-09-09T01:38:26;99908.03;;;5.53;100.00
26635;BME280;14490;54.208;37.686;2022-09-09T01:40:54;99909.88;;;5.50;100.00
26635;BME280;14490;54.208;37.686;2022-09-09T01:43:23;99912.31;;;5.55;100.00
26635;BME280;14490;54.208;37.686;2022-09-09T01:45:54;99915.69;;;5.59;100.00
26635;BME280;14490;54.208;37.686;2022-09-09T01:48:23;99918.19;;;5.62;100.00
26635;BME280;14490;54.208;37.686;2022-09-09T01:50:51;99918.78;;;5.67;100.00
26635;BME280;14490;54.208;37.686;2022-09-09T01:53:19;99928.19;;;5.74;100.00
26635;BME280;14490;54.208;37.686;2022-09-09T01:55:53;99929.72;;;5.78;100.00
26635;BME280;14490;54.208;37.686;2022-09-09T01:58:28;99930.69;;;5.77;100.00
26635;BME280;14490;54.208;37.686;2022-09-09T02:01:02;99929.56;;;5.81;100.00
26635;BME280;14490;54.208;37.686;2022-09-09T02:03:35;99928.25;;;5.89;100.00
26635;BME280;14490;54.208;37.686;2022-09-09T02:06:05;99936.00;;;5.94;100.00
26635;BME280;14490;54.208;37.686;2022-09-09T02:08:40;99933.06;;;5.98;100.00
26635;BME280;14490;54.208;37.686;2022-09-09T02:11:12;99933.56;;;6.05;100.00
26635;BME280;14490;54.208;37.686;2022-09-09T02:13:40;99942.72;;;6.17;100.00
26635;BME280;14490;54.208;37.686;2022-09-09T02:16:13;99938.41;;;6.14;100.00
26635;BME280;14490;54.208;37.686;2022-09-09T02:18:44;99939.03;;;6.19;100.00
26635;BME280;14490;54.208;37.686;2022-09-09T02:21:16;99947.72;;;6.07;100.00
26635;BME280;14490;54.208;37.686;2022-09-09T02:23:44;99951.84;;;5.97;100.00
26635;BME280;14490;54.208;37.686;2022-09-09T02:26:17;99949.44;;;6.08;100.00
26635;BME280;14490;54.208;37.686;2022-09-09T02:28:47;99948.59;;;6.08;100.00
26635;BME280;14490;54.208;37.686;2022-09-09T02:31:18;99951.00;;;6.12;100.00
26635;BME280;14490;54.208;37.686;2022-09-09T02:33:51;99946.00;;;6.06;100.00
26635;BME280;14490;54.208;37.686;2022-09-09T02:36:21;99944.09;;;6.08;100.00
26635;BME280;14490;54.208;37.686;2022-09-09T02:38:50;99944.88;;;6.10;100.00
26635;BME280;14490;54.208;37.686;2022-09-09T02:41:19;99952.91;;;6.10;100.00
26635;BME280;14490;54.208;37.686;2022-09-09T02:43:48;99954.78;;;6.08;100.00
26635;BME280;14490;54.208;37.686;2022-09-09T02:46:23;99957.63;;;6.05;100.00
26635;BME280;14490;54.208;37.686;2022-09-09T02:48:59;99958.25;;;6.10;100.00
26635;BME280;14490;54.208;37.686;2022-09-09T02:51:30;99965.63;;;6.05;100.00
26635;BME280;14490;54.208;37.686;2022-09-09T02:54:04;99965.63;;;6.05;100.00
26635;BME280;14490;54.208;37.686;2022-09-09T02:56:40;99970.81;;;6.08;100.00
26635;BME280;14490;54.208;37.686;2022-09-09T02:59:10;99972.13;;;6.01;100.00
26635;BME280;14490;54.208;37.686;2022-09-09T03:01:39;99975.66;;;6.01;100.00
26635;BME280;14490;54.208;37.686;2022-09-09T03:04:06;99981.16;;;5.98;100.00
26635;BME280;14490;54.208;37.686;2022-09-09T03:06:34;99981.94;;;6.00;100.00
26635;BME280;14490;54.208;37.686;2022-09-09T03:09:01;99985.31;;;6.04;100.00
26635;BME280;14490;54.208;37.686;2022-09-09T03:11:29;99984.97;;;6.10;100.00
26635;BME280;14490;54.208;37.686;2022-09-09T03:13:59;99972.88;;;6.03;100.00
26635;BME280;14490;54.208;37.686;2022-09-09T03:16:26;99986.25;;;6.03;100.00
26635;BME280;14490;54.208;37.686;2022-09-09T03:18:55;99988.81;;;5.89;100.00
26635;BME280;14490;54.208;37.686;2022-09-09T03:21:23;99977.63;;;5.81;100.00
26635;BME280;14490;54.208;37.686;2022-09-09T03:23:50;99985.81;;;5.78;100.00
26635;BME280;14490;54.208;37.686;2022-09-09T03:26:17;99995.41;;;5.82;100.00
26635;BME280;14490;54.208;37.686;2022-09-09T03:28:45;99997.47;;;5.77;100.00
26635;BME280;14490;54.208;37.686;2022-09-09T03:31:12;99994.16;;;5.72;100.00
26635;BME280;14490;54.208;37.686;2022-09-09T03:33:40;100004.34;;;5.65;100.00
26635;BME280;14490;54.208;37.686;2022-09-09T03:36:09;100007.41;;;5.58;100.00
26635;BME280;14490;54.208;37.686;2022-09-09T03:38:36;100012.91;;;5.55;100.00
26635;BME280;14490;54.208;37.686;2022-09-09T03:41:04;100006.78;;;5.53;100.00
26635;BME280;14490;54.208;37.686;2022-09-09T03:43:33;100007.50;;;5.56;100.00
26635;BME280;14490;54.208;37.686;2022-09-09T03:46:01;100008.41;;;5.55;100.00
26635;BME280;14490;54.208;37.686;2022-09-09T03:48:29;100012.72;;;5.58;100.00
26635;BME280;14490;54.208;37.686;2022-09-09T03:50:57;100015.84;;;5.66;100.00
26635;BME280;14490;54.208;37.686;2022-09-09T03:53:30;100017.41;;;5.70;100.00
26635;BME280;14490;54.208;37.686;2022-09-09T03:56:03;100012.69;;;5.75;100.00
26635;BME280;14490;54.208;37.686;2022-09-09T03:58:34;100004.03;;;5.87;100.00
26635;BME280;14490;54.208;37.686;2022-09-09T04:01:02;100006.38;;;5.93;100.00
26635;BME280;14490;54.208;37.686;2022-09-09T04:03:35;100010.38;;;6.01;100.00
26635;BME280;14490;54.208;37.686;2022-09-09T04:06:03;100021.13;;;6.00;100.00
26635;BME280;14490;54.208;37.686;2022-09-09T04:08:34;100023.63;;;6.03;100.00
26635;BME280;14490;54.208;37.686;2022-09-09T04:11:03;100018.13;;;6.06;100.00
26635;BME280;14490;54.208;37.686;2022-09-09T04:13:31;100027.88;;;6.07;100.00
26635;BME280;14490;54.208;37.686;2022-09-09T04:16:03;100028.22;;;6.01;100.00
26635;BME280;14490;54.208;37.686;2022-09-09T04:18:31;100030.97;;;5.99;100.00
26635;BME280;14490;54.208;37.686;2022-09-09T04:21:05;100031.06;;;5.98;100.00
26635;BME280;14490;54.208;37.686;2022-09-09T04:23:37;100029.31;;;5.97;100.00
26635;BME280;14490;54.208;37.686;2022-09-09T04:26:06;100029.84;;;6.03;100.00
26635;BME280;14490;54.208;37.686;2022-09-09T04:28:35;100023.31;;;6.09;100.00
26635;BME280;14490;54.208;37.686;2022-09-09T04:31:06;100032.78;;;6.15;100.00
26635;BME280;14490;54.208;37.686;2022-09-09T04:33:34;100025.91;;;6.26;100.00
26635;BME280;14490;54.208;37.686;2022-09-09T04:36:02;100028.75;;;6.39;100.00
26635;BME280;14490;54.208;37.686;2022-09-09T04:38:29;100036.19;;;6.49;100.00
26635;BME280;14490;54.208;37.686;2022-09-09T04:40:58;100033.41;;;6.51;100.00
26635;BME280;14490;54.208;37.686;2022-09-09T04:43:25;100030.31;;;6.43;100.00
26635;BME280;14490;54.208;37.686;2022-09-09T04:45:56;100038.09;;;6.47;100.00
26635;BME280;14490;54.208;37.686;2022-09-09T04:48:24;100041.34;;;6.52;100.00
26635;BME280;14490;54.208;37.686;2022-09-09T04:50:55;100044.28;;;6.48;100.00
26635;BME280;14490;54.208;37.686;2022-09-09T04:53:23;100037.75;;;6.53;100.00
26635;BME280;14490;54.208;37.686;2022-09-09T04:55:50;100049.09;;;6.57;100.00
26635;BME280;14490;54.208;37.686;2022-09-09T04:58:20;100048.50;;;6.68;100.00
26635;BME280;14490;54.208;37.686;2022-09-09T05:00:48;100044.84;;;6.84;100.00
26635;BME280;14490;54.208;37.686;2022-09-09T05:03:16;100046.50;;;6.87;100.00
26635;BME280;14490;54.208;37.686;2022-09-09T05:05:43;100045.28;;;6.92;100.00
26635;BME280;14490;54.208;37.686;2022-09-09T05:08:10;100057.09;;;6.88;100.00
26635;BME280;14490;54.208;37.686;2022-09-09T05:10:38;100053.38;;;6.91;100.00
26635;BME280;14490;54.208;37.686;2022-09-09T05:13:07;100056.06;;;6.91;100.00
26635;BME280;14490;54.208;37.686;2022-09-09T05:15:36;100057.81;;;6.92;100.00
26635;BME280;14490;54.208;37.686;2022-09-09T05:18:03;100062.22;;;6.93;100.00
26635;BME280;14490;54.208;37.686;2022-09-09T05:20:30;100063.75;;;6.97;100.00
26635;BME280;14490;54.208;37.686;2022-09-09T05:22:58;100057.84;;;7.06;100.00
26635;BME280;14490;54.208;37.686;2022-09-09T05:25:26;100063.16;;;7.22;100.00
26635;BME280;14490;54.208;37.686;2022-09-09T05:27:53;100060.66;;;7.48;100.00
26635;BME280;14490;54.208;37.686;2022-09-09T05:30:20;100067.69;;;7.65;100.00
26635;BME280;14490;54.208;37.686;2022-09-09T05:32:51;100071.00;;;7.84;100.00
26635;BME280;14490;54.208;37.686;2022-09-09T05:35:18;100073.38;;;7.89;100.00
26635;BME280;14490;54.208;37.686;2022-09-09T05:37:46;100064.94;;;7.95;100.00
26635;BME280;14490;54.208;37.686;2022-09-09T05:40:13;100071.25;;;7.94;100.00
26635;BME280;14490;54.208;37.686;2022-09-09T05:42:41;100083.53;;;7.98;100.00
26635;BME280;14490;54.208;37.686;2022-09-09T05:45:08;100074.91;;;7.93;100.00
26635;BME280;14490;54.208;37.686;2022-09-09T05:47:36;100081.72;;;7.98;100.00
26635;BME280;14490;54.208;37.686;2022-09-09T05:50:06;100086.31;;;7.96;100.00
26635;BME280;14490;54.208;37.686;2022-09-09T05:52:34;100084.50;;;8.11;100.00
26635;BME280;14490;54.208;37.686;2022-09-09T05:55:01;100096.72;;;8.15;100.00
26635;BME280;14490;54.208;37.686;2022-09-09T05:57:29;100089.84;;;8.11;100.00
26635;BME280;14490;54.208;37.686;2022-09-09T05:59:56;100087.66;;;8.17;100.00
26635;BME280;14490;54.208;37.686;2022-09-09T06:02:25;100095.78;;;8.16;100.00
26635;BME280;14490;54.208;37.686;2022-09-09T06:04:52;100090.44;;;8.30;100.00
26635;BME280;14490;54.208;37.686;2022-09-09T06:07:22;100100.13;;;8.47;100.00
26635;BME280;14490;54.208;37.686;2022-09-09T06:09:50;100107.09;;;8.49;100.00
26635;BME280;14490;54.208;37.686;2022-09-09T06:12:18;100104.44;;;8.49;100.00
26635;BME280;14490;54.208;37.686;2022-09-09T06:14:46;100114.47;;;8.46;100.00
26635;BME280;14490;54.208;37.686;2022-09-09T06:17:13;100109.63;;;8.38;100.00
26635;BME280;14490;54.208;37.686;2022-09-09T06:19:40;100106.63;;;8.43;100.00
26635;BME280;14490;54.208;37.686;2022-09-09T06:22:07;100111.53;;;8.50;100.00
26635;BME280;14490;54.208;37.686;2022-09-09T06:24:39;100115.72;;;8.54;100.00
26635;BME280;14490;54.208;37.686;2022-09-09T06:27:06;100117.88;;;8.76;100.00
26635;BME280;14490;54.208;37.686;2022-09-09T06:29:33;100109.56;;;8.66;100.00
26635;BME280;14490;54.208;37.686;2022-09-09T06:32:00;100121.28;;;8.65;100.00
26635;BME280;14490;54.208;37.686;2022-09-09T06:34:28;100110.44;;;8.81;100.00
26635;BME280;14490;54.208;37.686;2022-09-09T06:36:55;100121.19;;;8.94;100.00
26635;BME280;14490;54.208;37.686;2022-09-09T06:39:23;100111.94;;;8.85;100.00
26635;BME280;14490;54.208;37.686;2022-09-09T06:41:52;100116.28;;;8.73;100.00
26635;BME280;14490;54.208;37.686;2022-09-09T06:44:19;100119.63;;;8.77;100.00
26635;BME280;14490;54.208;37.686;2022-09-09T06:46:48;100117.56;;;8.95;100.00
26635;BME280;14490;54.208;37.686;2022-09-09T06:49:15;100123.53;;;8.86;100.00
26635;BME280;14490;54.208;37.686;2022-09-09T06:51:43;100125.81;;;8.92;100.00
26635;BME280;14490;54.208;37.686;2022-09-09T06:54:11;100125.06;;;8.90;100.00
26635;BME280;14490;54.208;37.686;2022-09-09T06:56:40;100128.34;;;8.81;100.00
26635;BME280;14490;54.208;37.686;2022-09-09T06:59:10;100128.91;;;8.86;100.00
26635;BME280;14490;54.208;37.686;2022-09-09T07:01:38;100135.22;;;8.99;100.00
26635;BME280;14490;54.208;37.686;2022-09-09T07:04:06;100135.75;;;9.18;100.00
26635;BME280;14490;54.208;37.686;2022-09-09T07:06:34;100129.38;;;9.46;100.00
26635;BME280;14490;54.208;37.686;2022-09-09T07:09:03;100127.09;;;9.79;100.00
26635;BME280;14490;54.208;37.686;2022-09-09T07:11:33;100129.28;;;9.99;100.00
26635;BME280;14490;54.208;37.686;2022-09-09T07:14:01;100126.22;;;10.18;100.00
26635;BME280;14490;54.208;37.686;2022-09-09T07:16:30;100119.84;;;10.19;100.00
26635;BME280;14490;54.208;37.686;2022-09-09T07:18:58;100127.59;;;10.23;96.91
26635;BME280;14490;54.208;37.686;2022-09-09T07:21:28;100124.25;;;10.20;95.97
26635;BME280;14490;54.208;37.686;2022-09-09T07:23:56;100133.56;;;10.02;93.34
26635;BME280;14490;54.208;37.686;2022-09-09T07:26:25;100135.94;;;9.94;93.76
26635;BME280;14490;54.208;37.686;2022-09-09T07:28:53;100138.41;;;9.84;91.01
26635;BME280;14490;54.208;37.686;2022-09-09T07:31:23;100134.84;;;9.83;89.13
26635;BME280;14490;54.208;37.686;2022-09-09T07:33:53;100141.94;;;9.97;89.79
26635;BME280;14490;54.208;37.686;2022-09-09T07:36:21;100153.31;;;10.15;89.00
26635;BME280;14490;54.208;37.686;2022-09-09T07:38:50;100147.13;;;10.13;88.33
26635;BME280;14490;54.208;37.686;2022-09-09T07:41:19;100155.53;;;10.08;88.32
26635;BME280;14490;54.208;37.686;2022-09-09T07:43:48;100155.59;;;10.21;88.96
26635;BME280;14490;54.208;37.686;2022-09-09T07:46:16;100149.78;;;10.39;87.18
26635;BME280;14490;54.208;37.686;2022-09-09T07:48:44;100142.00;;;10.60;82.81
26635;BME280;14490;54.208;37.686;2022-09-09T07:51:14;100135.81;;;10.83;84.92
26635;BME280;14490;54.208;37.686;2022-09-09T07:53:43;100139.56;;;10.93;82.04
26635;BME280;14490;54.208;37.686;2022-09-09T07:56:12;100138.22;;;11.12;83.84
26635;BME280;14490;54.208;37.686;2022-09-09T07:58:42;100136.16;;;11.39;83.56
26635;BME280;14490;54.208;37.686;2022-09-09T08:01:12;100137.53;;;11.68;81.98
26635;BME280;14490;54.208;37.686;2022-09-09T08:03:42;100132.13;;;11.68;76.81
26635;BME280;14490;54.208;37.686;2022-09-09T08:06:10;100138.91;;;11.97;77.23
26635;BME280;14490;54.208;37.686;2022-09-09T08:08:39;100141.16;;;11.80;71.21
26635;BME280;14490;54.208;37.686;2022-09-09T08:11:09;100146.72;;;11.42;71.22
26635;BME280;14490;54.208;37.686;2022-09-09T08:13:38;100147.09;;;11.25;71.76
26635;BME280;14490;54.208;37.686;2022-09-09T08:16:09;100135.22;;;11.04;71.18
26635;BME280;14490;54.208;37.686;2022-09-09T08:18:38;100142.00;;;11.09;71.96
26635;BME280;14490;54.208;37.686;2022-09-09T08:21:08;100149.00;;;11.12;71.06
26635;BME280;14490;54.208;37.686;2022-09-09T08:23:39;100146.31;;;11.12;68.37
26635;BME280;14490;54.208;37.686;2022-09-09T08:26:09;100144.41;;;11.25;68.17
26635;BME280;14490;54.208;37.686;2022-09-09T08:28:37;100154.72;;;11.31;64.43
26635;BME280;14490;54.208;37.686;2022-09-09T08:31:05;100148.88;;;11.37;62.42
26635;BME280;14490;54.208;37.686;2022-09-09T08:33:34;100152.44;;;11.37;62.37
26635;BME280;14490;54.208;37.686;2022-09-09T08:36:03;100146.63;;;11.31;64.93
26635;BME280;14490;54.208;37.686;2022-09-09T08:38:31;100151.25;;;11.18;62.96
26635;BME280;14490;54.208;37.686;2022-09-09T08:41:03;100136.94;;;11.05;61.12
26635;BME280;14490;54.208;37.686;2022-09-09T08:43:48;100135.84;;;11.07;61.32
26635;BME280;14490;54.208;37.686;2022-09-09T08:46:18;100144.50;;;11.00;61.29
26635;BME280;14490;54.208;37.686;2022-09-09T08:48:52;100147.03;;;11.14;63.63
26635;BME280;14490;54.208;37.686;2022-09-09T08:51:24;100159.16;;;11.32;63.20
26635;BME280;14490;54.208;37.686;2022-09-09T08:53:53;100151.53;;;11.49;64.19
26635;BME280;14490;54.208;37.686;2022-09-09T08:56:23;100141.66;;;11.61;61.57
26635;BME280;14490;54.208;37.686;2022-09-09T08:58:51;100140.34;;;11.90;61.22
26635;BME280;14490;54.208;37.686;2022-09-09T09:01:35;100139.94;;;12.19;61.29
26635;BME280;14490;54.208;37.686;2022-09-09T09:04:12;100144.47;;;12.40;59.73
26635;BME280;14490;54.208;37.686;2022-09-09T09:06:49;100151.75;;;12.40;58.67
26635;BME280;14490;54.208;37.686;2022-09-09T09:09:21;100161.06;;;12.36;60.27
26635;BME280;14490;54.208;37.686;2022-09-09T09:11:55;100172.25;;;12.07;59.48
26635;BME280;14490;54.208;37.686;2022-09-09T09:14:26;100165.31;;;11.81;59.20
26635;BME280;14490;54.208;37.686;2022-09-09T09:16:56;100164.94;;;11.62;59.36
26635;BME280;14490;54.208;37.686;2022-09-09T09:19:26;100171.47;;;11.47;60.76
26635;BME280;14490;54.208;37.686;2022-09-09T09:21:55;100166.03;;;11.60;61.66
26635;BME280;14490;54.208;37.686;2022-09-09T09:24:30;100162.84;;;11.78;61.26
26635;BME280;14490;54.208;37.686;2022-09-09T09:27:07;100152.72;;;11.93;60.74
26635;BME280;14490;54.208;37.686;2022-09-09T09:29:39;100157.19;;;12.16;60.75
26635;BME280;14490;54.208;37.686;2022-09-09T09:32:10;100152.22;;;12.56;60.12
26635;BME280;14490;54.208;37.686;2022-09-09T09:34:39;100158.75;;;12.76;59.59
26635;BME280;14490;54.208;37.686;2022-09-09T09:37:07;100163.75;;;12.80;58.90
26635;BME280;14490;54.208;37.686;2022-09-09T09:39:42;100152.47;;;12.53;56.46
26635;BME280;14490;54.208;37.686;2022-09-09T09:42:11;100158.13;;;12.61;58.72
26635;BME280;14490;54.208;37.686;2022-09-09T09:44:40;100160.94;;;12.59;55.01
26635;BME280;14490;54.208;37.686;2022-09-09T09:47:10;100162.78;;;12.37;56.09
26635;BME280;14490;54.208;37.686;2022-09-09T09:49:38;100171.34;;;12.31;55.32
26635;BME280;14490;54.208;37.686;2022-09-09T09:52:06;100191.19;;;12.19;54.27
26635;BME280;14490;54.208;37.686;2022-09-09T09:54:47;100177.78;;;12.06;54.03
26635;BME280;14490;54.208;37.686;2022-09-09T09:57:16;100190.41;;;12.05;53.82
26635;BME280;14490;54.208;37.686;2022-09-09T09:59:44;100173.09;;;11.97;53.59
26635;BME280;14490;54.208;37.686;2022-09-09T10:02:16;100177.63;;;11.96;52.03
26635;BME280;14490;54.208;37.686;2022-09-09T10:04:45;100173.03;;;12.10;52.53
26635;BME280;14490;54.208;37.686;2022-09-09T10:07:16;100177.88;;;12.39;52.70
26635;BME280;14490;54.208;37.686;2022-09-09T10:09:44;100174.59;;;12.69;51.26
26635;BME280;14490;54.208;37.686;2022-09-09T10:12:18;100159.38;;;12.79;50.75
26635;BME280;14490;54.208;37.686;2022-09-09T10:14:54;100165.03;;;13.09;50.43
26635;BME280;14490;54.208;37.686;2022-09-09T10:17:27;100166.22;;;13.05;50.86
26635;BME280;14490;54.208;37.686;2022-09-09T10:20:04;100166.25;;;12.61;52.10
26635;BME280;14490;54.208;37.686;2022-09-09T10:22:45;100177.34;;;12.34;53.00
26635;BME280;14490;54.208;37.686;2022-09-09T10:25:21;100170.31;;;12.10;53.86
26635;BME280;14490;54.208;37.686;2022-09-09T10:28:05;100171.69;;;12.15;55.03
26635;BME280;14490;54.208;37.686;2022-09-09T10:30:45;100175.75;;;12.32;55.07
26635;BME280;14490;54.208;37.686;2022-09-09T10:33:21;100172.72;;;12.58;55.09
26635;BME280;14490;54.208;37.686;2022-09-09T10:35:54;100161.06;;;12.80;52.91
26635;BME280;14490;54.208;37.686;2022-09-09T10:38:28;100163.53;;;13.17;52.18
26635;BME280;14490;54.208;37.686;2022-09-09T10:47:04;100171.13;;;13.34;49.60
26635;BME280;14490;54.208;37.686;2022-09-09T10:50:01;100170.38;;;12.98;49.79
26635;BME280;14490;54.208;37.686;2022-09-09T10:52:52;100168.56;;;12.66;51.64
26635;BME280;14490;54.208;37.686;2022-09-09T10:55:27;100191.00;;;12.44;52.29
26635;BME280;14490;54.208;37.686;2022-09-09T10:58:01;100182.88;;;12.33;52.60
26635;BME280;14490;54.208;37.686;2022-09-09T11:00:36;100167.94;;;12.40;53.44
26635;BME280;14490;54.208;37.686;2022-09-09T11:03:11;100167.69;;;12.54;52.23
26635;BME280;14490;54.208;37.686;2022-09-09T11:05:46;100176.31;;;12.70;52.14
26635;BME280;14490;54.208;37.686;2022-09-09T11:08:17;100166.22;;;12.83;50.29
26635;BME280;14490;54.208;37.686;2022-09-09T11:10:48;100166.47;;;13.02;51.62
26635;BME280;14490;54.208;37.686;2022-09-09T11:13:23;100162.53;;;13.06;48.54
26635;BME280;14490;54.208;37.686;2022-09-09T11:15:54;100166.84;;;13.20;49.29
26635;BME280;14490;54.208;37.686;2022-09-09T11:18:28;100164.81;;;13.44;49.11
26635;BME280;14490;54.208;37.686;2022-09-09T11:20:57;100167.84;;;13.62;48.97
26635;BME280;14490;54.208;37.686;2022-09-09T11:23:27;100174.91;;;13.42;48.54
26635;BME280;14490;54.208;37.686;2022-09-09T11:26:02;100173.75;;;13.13;48.66
26635;BME280;14490;54.208;37.686;2022-09-09T11:28:33;100174.06;;;12.86;49.37
26635;BME280;14490;54.208;37.686;2022-09-09T11:31:17;100166.97;;;12.74;50.56
26635;BME280;14490;54.208;37.686;2022-09-09T11:34:03;100174.59;;;12.69;50.33
26635;BME280;14490;54.208;37.686;2022-09-09T11:36:49;100162.44;;;12.75;50.09
26635;BME280;14490;54.208;37.686;2022-09-09T11:39:36;100167.22;;;12.82;49.96
26635;BME280;14490;54.208;37.686;2022-09-09T11:42:15;100163.66;;;12.93;49.25
26635;BME280;14490;54.208;37.686;2022-09-09T11:44:44;100157.91;;;13.08;48.09
26635;BME280;14490;54.208;37.686;2022-09-09T11:47:22;100157.97;;;13.29;47.10
26635;BME280;14490;54.208;37.686;2022-09-09T11:50:06;100150.03;;;13.59;48.04
26635;BME280;14490;54.208;37.686;2022-09-09T11:52:36;100157.34;;;13.80;48.00
26635;BME280;14490;54.208;37.686;2022-09-09T11:55:09;100177.16;;;13.69;47.44
26635;BME280;14490;54.208;37.686;2022-09-09T11:57:39;100177.91;;;13.28;47.53
26635;BME280;14490;54.208;37.686;2022-09-09T12:00:27;100171.16;;;13.11;48.20
26635;BME280;14490;54.208;37.686;2022-09-09T12:02:57;100178.50;;;12.87;47.41
26635;BME280;14490;54.208;37.686;2022-09-09T12:05:27;100175.81;;;12.76;46.39
26635;BME280;14490;54.208;37.686;2022-09-09T12:08:02;100167.69;;;12.98;47.69
26635;BME280;14490;54.208;37.686;2022-09-09T12:10:31;100166.13;;;13.18;48.38
26635;BME280;14490;54.208;37.686;2022-09-09T12:13:07;100162.38;;;13.41;47.57
26635;BME280;14490;54.208;37.686;2022-09-09T12:15:46;100170.13;;;13.46;46.11
26635;BME280;14490;54.208;37.686;2022-09-09T12:18:14;100162.88;;;13.78;46.26
26635;BME280;14490;54.208;37.686;2022-09-09T12:20:52;100158.22;;;14.01;46.96
26635;BME280;14490;54.208;37.686;2022-09-09T12:23:29;100162.66;;;14.22;46.78
26635;BME280;14490;54.208;37.686;2022-09-09T12:26:06;100158.16;;;14.12;44.93
26635;BME280;14490;54.208;37.686;2022-09-09T12:28:49;100178.91;;;13.59;45.88
26635;BME280;14490;54.208;37.686;2022-09-09T12:31:25;100166.09;;;13.40;47.42
26635;BME280;14490;54.208;37.686;2022-09-09T12:34:02;100161.06;;;13.25;48.05
26635;BME280;14490;54.208;37.686;2022-09-09T12:36:34;100166.47;;;13.13;47.81
26635;BME280;14490;54.208;37.686;2022-09-09T12:39:09;100168.91;;;13.05;48.49
26635;BME280;14490;54.208;37.686;2022-09-09T12:41:41;100170.66;;;13.18;48.36
26635;BME280;14490;54.208;37.686;2022-09-09T12:44:22;100176.28;;;13.37;47.79
26635;BME280;14490;54.208;37.686;2022-09-09T12:46:50;100168.38;;;13.45;46.46
26635;BME280;14490;54.208;37.686;2022-09-09T12:49:23;100166.00;;;13.62;47.34
26635;BME280;14490;54.208;37.686;2022-09-09T12:51:55;100159.38;;;13.87;47.52
26635;BME280;14490;54.208;37.686;2022-09-09T12:54:28;100165.22;;;14.03;47.22
26635;BME280;14490;54.208;37.686;2022-09-09T12:56:55;100168.97;;;13.91;46.48
26635;BME280;14490;54.208;37.686;2022-09-09T12:59:23;100179.41;;;13.64;46.87
26635;BME280;14490;54.208;37.686;2022-09-09T13:01:55;100175.28;;;13.49;46.95
26635;BME280;14490;54.208;37.686;2022-09-09T13:04:23;100181.06;;;13.33;47.74
26635;BME280;14490;54.208;37.686;2022-09-09T13:06:53;100160.97;;;13.15;47.67
26635;BME280;14490;54.208;37.686;2022-09-09T13:09:22;100164.50;;;13.04;48.07
26635;BME280;14490;54.208;37.686;2022-09-09T13:11:53;100165.22;;;12.95;47.77